Flight Track Log - Related Links

Times and Time Zones

All times are in EDT time to prevent confusion due to time zone crossing. See the SKW5633 flight status page for this flight to view local times or setup timezone preferences in your user account.


Time Position Orientation Groundspeed Altitude Reporting Facility
EDT Latitude Longitude Course Direction KTS MPH feet Rate Location/Type
Thu 06:54:45 PM 47.4436 -122.3089 182° South 135 155 1,100  Level Seattle Center
Thu 06:55:09 PM 47.4306 -122.3097 182° South 135 155 2,000 1,835 Climbing Seattle Center
Thu 06:56:10 PM 47.3906 -122.3447 211° Southwest 173 199 3,700 1,641 Climbing Seattle Center
Thu 06:57:17 PM 47.3419 -122.3811 207° Southwest 179 206 5,500 1,125 Climbing Seattle Center
Thu 06:58:18 PM 47.2956 -122.4167 207° Southwest 191 220 6,100 495 Climbing Seattle Center
Thu 06:59:06 PM 47.2572 -122.4419 204° Southwest 195 224 6,400 550 Climbing Seattle Center
Thu 07:00:07 PM 47.2008 -122.4333 174° South 188 216 7,100 738 Climbing Seattle Center
Thu 07:01:08 PM 47.1506 -122.4128 164° South 196 226 7,900 984 Climbing Seattle Center
Thu 07:02:09 PM 47.1183 -122.3522 128° Southeast 188 216 9,100 1,328 Climbing Seattle Center
Thu 07:03:10 PM 47.0758 -122.2983 139° Southeast 202 232 10,600 1,512 Climbing Seattle Center
Thu 07:04:12 PM 47.0192 -122.3033 183° South 187 215 12,200 1,317 Climbing Seattle Center
Thu 07:05:13 PM 46.9628 -122.3100 185° South 204 235 13,300 1,131 Climbing Seattle Center
Thu 07:06:14 PM 46.9042 -122.3144 183° South 210 242 14,500 885 Climbing Seattle Center
Thu 07:07:15 PM 46.8442 -122.3219 185° South 221 254 15,100 295 Climbing Seattle Center
Thu 07:08:16 PM 46.7697 -122.3297 184° South 248 285 15,100  Level Seattle Center
Thu 07:09:17 PM 46.7097 -122.3372 185° South 256 295 15,100  Level Seattle Center
Thu 07:10:18 PM 46.6397 -122.3439 184° South 257 296 15,100 -49 Level Seattle Center
Thu 07:11:19 PM 46.5564 -122.3517 184° South 253 291 15,000  Descending Seattle Center
Thu 07:11:56 PM 46.5131 -122.3600 188° South 254 292 15,100 98 Climbing Seattle Center
Thu 07:12:20 PM 46.4864 -122.3575 176° South 253 291 15,100  Level Seattle Center
Thu 07:12:57 PM 46.4431 -122.3675 189° South 251 289 15,100  Level Seattle Center
Thu 07:13:22 PM 46.4175 -122.3628 173° South 253 291 15,100 -327 Level Seattle Center
Thu 07:13:52 PM 46.3808 -122.3714 189° South 252 290 14,800 -984 Descending Seattle Center
Thu 07:14:23 PM 46.3461 -122.3719 181° South 262 302 14,100 -1,612 Descending Seattle Center
Thu 07:14:59 PM 46.2942 -122.3828 188° South 270 311 13,000 -1,574 Descending Seattle Center
Thu 07:15:24 PM 46.2725 -122.3797 174° South 268 308 12,500 -1,510 Descending Seattle Center
Thu 07:17:26 PM 46.1308 -122.3964 185° South 253 291 9,300 -1,605 Descending Seattle Center
Thu 07:18:01 PM 46.0861 -122.4042 187° South 248 285 8,300 -1,672 Descending Seattle Center
Thu 07:18:27 PM 46.0647 -122.4122 195° South 246 283 7,600 -1,818 Descending Seattle Center
Thu 07:19:07 PM 46.0144 -122.4464 205° Southwest 239 275 6,300 -1,475 Descending Seattle Center
Thu 07:19:28 PM 46.0050 -122.4522 203° Southwest 238 274 6,100 -218 Descending Seattle Center
Thu 07:20:02 PM 45.9594 -122.4753 199° South 230 265 6,100 -98 Level Seattle Center
Thu 07:20:29 PM 45.9461 -122.4833 203° Southwest 230 265 6,000  Descending Seattle Center
Thu 07:21:03 PM 45.9028 -122.5050 199° South 217 250 6,100 98 Climbing Seattle Center
Thu 07:21:30 PM 45.8897 -122.5147 207° Southwest 222 255 6,100  Level Seattle Center
Thu 07:22:04 PM 45.8483 -122.5367 200° South 214 246 6,100  Level Seattle Center
Thu 07:22:31 PM 45.8231 -122.5522 203° Southwest 216 249 6,100  Level Seattle Center
Thu 07:23:10 PM 45.7881 -122.5492 177° South 217 250 6,100  Level Seattle Center
Thu 07:23:32 PM 45.7700 -122.5289 142° Southeast 228 262 6,100  Level Seattle Center
Thu 07:24:05 PM 45.7433 -122.4994 142° Southeast 224 258 6,100  Level Seattle Center
Thu 07:24:33 PM 45.7236 -122.4739 138° Southeast 225 259 6,100  Level Seattle Center
Thu 07:25:06 PM 45.7006 -122.4489 143° Southeast 190 219 6,100 -98 Level Seattle Center
Thu 07:25:34 PM 45.6825 -122.4250 137° Southeast 207 238 6,000 -327 Descending Seattle Center
Thu 07:26:01 PM 45.6661 -122.4075 143° Southeast 175 201 5,800 -984 Descending Seattle Center
Thu 07:26:35 PM 45.6436 -122.3833 143° Southeast 188 216 5,000 -1,100 Descending Seattle Center
Thu 07:27:01 PM 45.6225 -122.3636 147° Southeast 192 221 4,700 -689 Descending Seattle Center
Thu 07:27:36 PM 45.6039 -122.3361 134° Southeast 186 214 4,300 -885 Descending Seattle Center
Thu 07:28:02 PM 45.5853 -122.3081 133° Southeast 178 205 3,800 -787 Descending Seattle Center
Thu 07:28:37 PM 45.5694 -122.2836 133° Southeast 184 212 3,500 -689 Descending Seattle Center
Thu 07:29:03 PM 45.5467 -122.2900 191° South 165 190 3,100 -492 Descending Seattle Center
Thu 07:29:38 PM 45.5294 -122.3036 209° Southwest 174 200 3,000 -492 Descending Seattle Center
Thu 07:30:04 PM 45.5078 -122.3217 210° Southwest 155 178 2,600 -492 Descending Seattle Center
Thu 07:30:39 PM 45.5072 -122.3508 268° West 160 184 2,500  Descending Seattle Center
Thu 07:31:05 PM 45.5144 -122.3867 286° West 185 213 2,600 -98 Climbing Seattle Center
Thu 07:31:40 PM 45.5267 -122.4167 300° West 174 200 2,400 -500 Descending Seattle Center
Thu 07:32:05 PM 45.5383 -122.4508 296° West 182 209 2,100 -774 Descending Seattle Center
Thu 07:32:42 PM 45.5483 -122.4767 299° West 173 199 1,600 -885 Descending Seattle Center
Thu 07:33:06 PM 45.5578 -122.5047 296° West 153 176 1,200 -787 Descending Seattle Center
Thu 07:33:43 PM 45.5711 -122.5317 305° West 167 192 800 -806 Descending Seattle Center
Thu 07:34:13 PM 45.5794 -122.5575 295° West 129 148 300 -590 Descending Seattle Center
Thu 07:34:44 PM 45.5906 -122.5797 306° West 157 181 200 -194 Descending Seattle Center

Login

Don't have an account? Register now (free) for customized features, flight alerts, and more!